Time;durP1;ratioP1;P1;durP2;ratioP2;P2;SDS_P1;SDS_P2;PMS_P1;PMS_P2;Temp;Humidity;BMP_temperature;BMP_pressure;BME280_temperature;BME280_humidity;BME280_pressure;Samples;Min_cycle;Max_cycle;Signal;HPM_P1;HPM_P2
2022/11/13 00:00:14;;;;;;;27.92;21.45;;;9.80;99.90;;;;;;6136163;23;20243;-79
2022/11/13 00:02:41;;;;;;;30.00;19.15;;;9.70;99.90;;;;;;6136451;23;20248;-80
2022/11/13 00:05:09;;;;;;;26.70;18.60;;;9.60;99.90;;;;;;6162547;23;20182;-82
2022/11/13 00:07:42;;;;;;;26.65;19.85;;;9.80;99.90;;;;;;6137642;23;20183;-83
2022/11/13 00:10:09;;;;;;;32.47;20.90;;;9.90;99.90;;;;;;6161836;23;20493;-81
2022/11/13 00:12:36;;;;;;;31.17;20.05;;;9.70;99.90;;;;;;6162210;23;20712;-82
2022/11/13 00:15:04;;;;;;;30.65;21.20;;;9.60;99.90;;;;;;6162028;23;20381;-80
2022/11/13 00:17:32;;;;;;;40.60;24.58;;;9.40;99.90;;;;;;6161507;23;20232;-82
2022/11/13 00:20:00;;;;;;;32.28;22.48;;;9.50;99.90;;;;;;6160371;23;20197;-82
2022/11/13 00:22:29;;;;;;;30.48;20.45;;;9.50;99.90;;;;;;6162431;23;20212;-84
2022/11/13 00:24:57;;;;;;;36.28;24.48;;;9.80;99.90;;;;;;6166209;23;20727;-83
2022/11/13 00:27:24;;;;;;;34.78;23.38;;;9.40;99.90;;;;;;6136217;23;20264;-84
2022/11/13 00:29:51;;;;;;;32.70;22.25;;;9.40;99.90;;;;;;6161462;23;20213;-83
2022/11/13 00:32:21;;;;;;;31.17;22.10;;;9.50;99.90;;;;;;6160936;23;20181;-82
2022/11/13 00:34:48;;;;;;;34.00;21.73;;;9.50;99.90;;;;;;6161224;23;20728;-81
2022/11/13 00:37:15;;;;;;;32.22;22.35;;;9.60;99.90;;;;;;6163434;23;20413;-82
2022/11/13 00:39:42;;;;;;;30.58;21.13;;;9.60;99.90;;;;;;6138671;23;20186;-82
2022/11/13 00:42:09;;;;;;;34.90;20.58;;;9.60;99.90;;;;;;6164372;23;20221;-83
2022/11/13 00:44:37;;;;;;;32.05;20.52;;;9.50;99.90;;;;;;6162634;23;20232;-86
2022/11/13 00:47:05;;;;;;;25.00;19.80;;;9.50;99.90;;;;;;6136390;23;20189;-81
2022/11/13 00:49:32;;;;;;;29.30;19.23;;;9.40;99.90;;;;;;6136094;23;20216;-83
2022/11/13 00:52:02;;;;;;;33.65;21.27;;;9.30;99.90;;;;;;6161163;23;20559;-81
2022/11/13 00:54:29;;;;;;;43.38;22.58;;;9.30;99.90;;;;;;6162077;23;20189;-81
2022/11/13 00:56:57;;;;;;;32.15;22.48;;;9.20;99.90;;;;;;6137123;23;20232;-82
2022/11/13 00:59:23;;;;;;;27.10;19.33;;;9.20;99.90;;;;;;6161905;23;20178;-85
2022/11/13 01:01:52;;;;;;;27.40;20.60;;;9.20;99.90;;;;;;6162859;23;20177;-84
2022/11/13 01:04:19;;;;;;;30.85;19.50;;;9.40;99.90;;;;;;6161712;23;20186;-83
2022/11/13 01:06:49;;;;;;;34.83;20.05;;;9.30;99.90;;;;;;6160487;23;20244;-83
2022/11/13 01:09:16;;;;;;;32.85;21.67;;;9.20;99.90;;;;;;6161763;23;20372;-83
2022/11/13 01:11:43;;;;;;;30.63;19.90;;;9.00;99.90;;;;;;6136515;23;20236;-82
2022/11/13 01:14:11;;;;;;;29.00;21.40;;;9.20;99.90;;;;;;6161532;23;20174;-82
2022/11/13 01:16:39;;;;;;;31.10;19.98;;;9.20;99.90;;;;;;6135707;23;20186;-83
2022/11/13 01:19:07;;;;;;;35.10;21.50;;;9.10;99.90;;;;;;6136265;23;20663;-83
2022/11/13 01:21:36;;;;;;;29.95;22.90;;;9.00;99.90;;;;;;6136065;23;20244;-83
2022/11/13 01:24:04;;;;;;;27.20;19.65;;;9.10;99.90;;;;;;6162398;23;20228;-83
2022/11/13 01:26:32;;;;;;;27.08;19.63;;;9.10;99.90;;;;;;6133431;23;20197;-85
2022/11/13 01:29:00;;;;;;;25.45;18.48;;;9.10;99.90;;;;;;6136929;23;20232;-81
2022/11/13 01:31:29;;;;;;;30.02;20.60;;;9.10;99.90;;;;;;6137343;23;20232;-83
2022/11/13 01:33:56;;;;;;;29.33;21.65;;;9.00;99.90;;;;;;6141588;23;20192;-82
2022/11/13 01:36:27;;;;;;;25.42;18.10;;;8.80;99.90;;;;;;6164749;23;20186;-81
2022/11/13 01:38:55;;;;;;;25.98;18.50;;;8.80;99.90;;;;;;6164954;23;20185;-82
2022/11/13 01:41:24;;;;;;;26.45;17.88;;;9.10;99.90;;;;;;6139258;23;20560;-82
2022/11/13 01:43:53;;;;;;;37.78;20.02;;;9.10;99.90;;;;;;6162909;23;20240;-80
2022/11/13 01:46:32;;;;;;;28.15;19.45;;;9.10;99.90;;;;;;6136728;23;20244;-81
2022/11/13 01:49:22;;;;;;;33.78;21.17;;;9.20;99.90;;;;;;6160343;23;20162;-83
2022/11/13 01:52:15;;;;;;;30.13;22.85;;;9.20;99.90;;;;;;6161071;23;20308;-82
2022/11/13 01:54:49;;;;;;;36.63;23.13;;;9.20;99.90;;;;;;6130658;23;20434;-82
2022/11/13 01:57:19;;;;;;;32.05;21.25;;;9.40;99.90;;;;;;6161740;23;20240;-81
2022/11/13 01:59:53;;;;;;;32.80;22.42;;;9.10;99.90;;;;;;6161741;23;20198;-81
2022/11/13 02:02:20;;;;;;;39.50;25.48;;;9.10;99.90;;;;;;6164228;23;20185;-82
2022/11/13 02:04:50;;;;;;;35.13;23.50;;;9.10;99.90;;;;;;6165489;23;20221;-81
2022/11/13 02:07:24;;;;;;;37.22;23.30;;;9.20;99.90;;;;;;6164843;23;20189;-83
2022/11/13 02:09:56;;;;;;;37.67;21.90;;;9.20;99.90;;;;;;6138121;23;20170;-81
2022/11/13 02:12:36;;;;;;;32.22;21.92;;;9.10;99.90;;;;;;6137878;23;20217;-83
2022/11/13 02:15:06;;;;;;;35.70;23.42;;;9.00;99.90;;;;;;6163617;23;20201;-80
2022/11/13 02:17:48;;;;;;;39.85;23.42;;;9.00;99.90;;;;;;6162261;23;20200;-80
2022/11/13 02:20:17;;;;;;;33.67;23.63;;;8.90;99.90;;;;;;6162833;23;20249;-83
2022/11/13 02:23:00;;;;;;;31.58;22.45;;;8.90;99.90;;;;;;6162827;23;20174;-82
2022/11/13 02:25:30;;;;;;;38.78;23.08;;;8.80;99.90;;;;;;6164113;23;20162;-83
2022/11/13 02:27:58;;;;;;;32.20;21.52;;;8.90;99.90;;;;;;6138095;23;20170;-82
2022/11/13 02:30:31;;;;;;;26.40;18.88;;;8.80;99.90;;;;;;6161961;23;20189;-83
2022/11/13 02:32:58;;;;;;;27.83;19.50;;;8.80;99.90;;;;;;6164094;23;20194;-82
2022/11/13 02:35:28;;;;;;;30.45;20.15;;;8.90;99.90;;;;;;6162608;23;20224;-82
2022/11/13 02:37:56;;;;;;;26.70;17.58;;;9.10;99.90;;;;;;6163513;23;20385;-82
2022/11/13 02:40:25;;;;;;;25.80;18.60;;;9.10;99.90;;;;;;6163357;23;20205;-81
2022/11/13 02:42:52;;;;;;;22.50;16.58;;;9.10;99.90;;;;;;6149204;23;20212;-84
2022/11/13 02:45:20;;;;;;;26.08;17.92;;;9.20;99.90;;;;;;6169109;23;20181;-81
2022/11/13 02:47:47;;;;;;;27.98;16.27;;;9.10;99.90;;;;;;6163087;23;20193;-83
2022/11/13 02:50:15;;;;;;;26.30;16.58;;;9.10;99.90;;;;;;6163996;23;20186;-83
2022/11/13 02:52:42;;;;;;;22.48;15.93;;;9.10;99.90;;;;;;6138175;23;20425;-82
2022/11/13 02:55:10;;;;;;;25.70;17.45;;;8.90;99.90;;;;;;6173889;23;20212;-85
2022/11/13 02:57:37;;;;;;;23.60;14.57;;;8.90;99.90;;;;;;6150967;23;20169;-84
2022/11/13 03:00:08;;;;;;;26.38;17.92;;;9.00;99.90;;;;;;6176837;23;20185;-83
2022/11/13 03:02:40;;;;;;;22.50;16.98;;;9.00;99.90;;;;;;6180531;23;20192;-83
2022/11/13 03:05:07;;;;;;;26.42;16.23;;;8.90;99.90;;;;;;6183067;23;20182;-84
2022/11/13 03:07:40;;;;;;;33.72;17.85;;;9.00;99.90;;;;;;6146674;23;20174;-85
2022/11/13 03:10:10;;;;;;;22.00;16.33;;;9.30;99.90;;;;;;6164288;23;20185;-82
2022/11/13 03:12:39;;;;;;;33.65;18.23;;;9.30;99.90;;;;;;6137970;23;20714;-82
2022/11/13 03:15:08;;;;;;;26.40;17.58;;;9.20;99.90;;;;;;6137328;23;20508;-82
2022/11/13 03:17:35;;;;;;;26.38;16.23;;;9.00;99.90;;;;;;6162748;23;20186;-82
2022/11/13 03:20:04;;;;;;;24.38;17.48;;;8.90;99.90;;;;;;6137213;23;20194;-83
2022/11/13 03:22:34;;;;;;;26.20;18.60;;;9.00;99.90;;;;;;6163386;23;20485;-84
2022/11/13 03:25:01;;;;;;;25.60;16.67;;;9.10;99.90;;;;;;6163134;23;20186;-86
2022/11/13 03:27:35;;;;;;;25.10;16.23;;;9.20;99.90;;;;;;6116616;23;20197;-85
2022/11/13 03:30:05;;;;;;;24.67;17.25;;;9.30;99.90;;;;;;6163939;23;20189;-83
2022/11/13 03:32:33;;;;;;;28.40;18.80;;;9.30;99.90;;;;;;6163340;23;20233;-84
2022/11/13 03:35:00;;;;;;;28.65;17.13;;;9.30;99.90;;;;;;6163529;23;20245;-84
2022/11/13 03:37:27;;;;;;;24.55;17.80;;;9.40;99.90;;;;;;6162890;23;20193;-84
2022/11/13 03:39:54;;;;;;;23.40;17.48;;;9.10;99.90;;;;;;6162373;23;20186;-84
2022/11/13 03:42:24;;;;;;;22.65;16.75;;;9.10;99.90;;;;;;6163477;23;20186;-86
2022/11/13 03:44:51;;;;;;;22.55;15.85;;;9.30;99.90;;;;;;6163067;23;20181;-85
2022/11/13 03:47:18;;;;;;;23.95;16.45;;;9.10;99.90;;;;;;6162757;23;20565;-84
2022/11/13 03:49:45;;;;;;;24.05;18.10;;;9.00;99.90;;;;;;6137675;23;20396;-85
2022/11/13 03:52:14;;;;;;;24.05;15.85;;;9.10;99.90;;;;;;6138906;23;20181;-85
2022/11/13 03:54:44;;;;;;;23.20;17.20;;;8.90;99.90;;;;;;6163528;23;20197;-84
2022/11/13 03:57:11;;;;;;;25.08;16.67;;;8.90;99.90;;;;;;6162859;23;20234;-83
2022/11/13 03:59:39;;;;;;;21.80;16.13;;;8.90;99.90;;;;;;6162085;23;20236;-84
2022/11/13 04:02:08;;;;;;;21.73;16.55;;;8.70;99.90;;;;;;6163431;23;20587;-83
2022/11/13 04:04:35;;;;;;;23.60;16.63;;;8.90;99.90;;;;;;6162803;23;20189;-83
2022/11/13 04:07:03;;;;;;;22.80;16.77;;;8.90;99.90;;;;;;6162617;23;20182;-84
2022/11/13 04:09:31;;;;;;;21.75;16.15;;;8.80;99.90;;;;;;6161451;23;20193;-85
2022/11/13 04:11:58;;;;;;;26.73;16.88;;;8.80;99.90;;;;;;6162477;23;20181;-85
2022/11/13 04:14:29;;;;;;;23.25;15.90;;;8.90;99.90;;;;;;6161563;23;20245;-85
2022/11/13 04:16:56;;;;;;;28.45;18.48;;;8.80;99.90;;;;;;6162865;23;20208;-85
2022/11/13 04:19:22;;;;;;;34.33;18.35;;;8.80;99.90;;;;;;6162541;23;20186;-84
2022/11/13 04:21:49;;;;;;;20.92;15.50;;;8.80;99.90;;;;;;6162801;23;20233;-85
2022/11/13 04:24:16;;;;;;;26.05;17.42;;;8.90;99.90;;;;;;6162232;23;20246;-83
2022/11/13 04:26:43;;;;;;;25.13;17.23;;;8.90;99.90;;;;;;6136245;23;20412;-84
2022/11/13 04:29:10;;;;;;;23.88;16.67;;;9.10;99.90;;;;;;6161055;23;20197;-81
2022/11/13 04:31:37;;;;;;;23.15;16.35;;;8.90;99.90;;;;;;6161998;23;20189;-82
2022/11/13 04:34:04;;;;;;;29.02;18.33;;;8.90;99.90;;;;;;6161549;23;20189;-82
2022/11/13 04:36:32;;;;;;;31.27;20.75;;;8.90;99.90;;;;;;6161913;23;20234;-83
2022/11/13 04:39:05;;;;;;;25.83;18.05;;;8.90;99.90;;;;;;6163236;23;20200;-82
2022/11/13 04:44:21;;;;;;;25.98;18.27;;;8.90;99.90;;;;;;6162313;23;20208;-83
2022/11/13 04:46:48;;;;;;;27.35;17.90;;;8.70;99.90;;;;;;6161831;23;20249;-82
2022/11/13 04:49:15;;;;;;;27.50;17.88;;;8.80;99.90;;;;;;6161683;23;20232;-84
2022/11/13 04:51:44;;;;;;;24.48;19.45;;;9.00;99.90;;;;;;6161669;23;20189;-83
2022/11/13 04:54:11;;;;;;;25.42;17.75;;;9.10;99.90;;;;;;6162624;23;20251;-83
2022/11/13 04:56:38;;;;;;;23.30;17.05;;;9.40;99.90;;;;;;6161202;23;20208;-81
2022/11/13 04:59:09;;;;;;;26.00;16.80;;;9.00;99.90;;;;;;6135222;23;20213;-84
2022/11/13 05:01:36;;;;;;;24.15;15.88;;;9.00;99.90;;;;;;6161242;23;20438;-83
2022/11/13 05:04:04;;;;;;;28.50;20.20;;;9.10;99.90;;;;;;6160878;23;20185;-83
2022/11/13 05:06:33;;;;;;;29.08;18.95;;;9.10;99.90;;;;;;6161650;23;20186;-83
2022/11/13 05:09:00;;;;;;;26.35;18.63;;;9.10;99.90;;;;;;6160811;23;20177;-83
2022/11/13 05:11:30;;;;;;;27.05;19.77;;;9.00;99.90;;;;;;6160528;23;20746;-82
2022/11/13 05:13:57;;;;;;;29.83;18.48;;;9.00;99.90;;;;;;6160972;23;20185;-82
2022/11/13 05:16:30;;;;;;;28.65;19.35;;;8.90;99.90;;;;;;6137248;23;20177;-81
2022/11/13 05:18:58;;;;;;;35.13;21.75;;;9.00;99.90;;;;;;6160978;23;20217;-81
2022/11/13 05:21:25;;;;;;;25.60;18.67;;;9.00;99.90;;;;;;6135840;23;20252;-83
2022/11/13 05:23:52;;;;;;;26.95;18.33;;;9.00;99.90;;;;;;6161082;23;20189;-83
2022/11/13 05:26:19;;;;;;;28.42;19.30;;;8.90;99.90;;;;;;6161399;23;20185;-81
2022/11/13 05:28:46;;;;;;;31.30;18.75;;;8.70;99.90;;;;;;6162291;23;20185;-83
2022/11/13 05:31:15;;;;;;;27.30;20.45;;;8.80;99.90;;;;;;6161979;23;20256;-83
2022/11/13 05:33:43;;;;;;;26.40;19.83;;;8.80;99.90;;;;;;6159091;23;20231;-82
2022/11/13 05:36:12;;;;;;;30.63;20.65;;;9.00;99.90;;;;;;6160559;23;20186;-83
2022/11/13 05:38:41;;;;;;;25.42;19.30;;;8.90;99.90;;;;;;6134206;23;20221;-82
2022/11/13 05:41:11;;;;;;;31.33;21.20;;;8.70;99.90;;;;;;6138094;23;20215;-82
2022/11/13 05:43:40;;;;;;;32.42;21.20;;;8.70;99.90;;;;;;6162374;23;20173;-82
2022/11/13 05:46:13;;;;;;;35.95;21.20;;;8.80;99.90;;;;;;6164328;23;20181;-83
2022/11/13 05:48:41;;;;;;;35.17;20.52;;;8.80;99.90;;;;;;6163797;23;20558;-82
2022/11/13 05:51:23;;;;;;;30.77;20.13;;;8.80;99.90;;;;;;6167513;23;20185;-82
2022/11/13 05:53:52;;;;;;;35.33;22.83;;;8.50;99.90;;;;;;6132905;23;20181;-82
2022/11/13 05:56:23;;;;;;;29.85;19.67;;;8.40;99.90;;;;;;6140892;23;20177;-80
2022/11/13 05:58:52;;;;;;;25.50;19.95;;;8.60;99.90;;;;;;6164627;23;20228;-82
2022/11/13 06:01:35;;;;;;;29.95;20.58;;;8.70;99.90;;;;;;6164113;23;20189;-84
2022/11/13 06:04:04;;;;;;;32.75;22.90;;;8.60;99.90;;;;;;6162956;23;20462;-84
2022/11/13 06:06:33;;;;;;;32.00;22.92;;;8.50;99.90;;;;;;6136981;23;20186;-83
2022/11/13 06:09:05;;;;;;;32.22;22.08;;;8.50;99.90;;;;;;6162879;23;20166;-82
2022/11/13 06:11:33;;;;;;;33.10;22.65;;;8.60;99.90;;;;;;6163234;23;20190;-83
2022/11/13 06:14:02;;;;;;;36.38;22.48;;;8.50;99.90;;;;;;6164453;23;20236;-83
2022/11/13 06:16:35;;;;;;;34.28;21.90;;;8.40;99.90;;;;;;6165753;23;20209;-83
2022/11/13 06:19:05;;;;;;;39.35;25.90;;;8.40;99.90;;;;;;6166192;23;20201;-83
2022/11/13 06:21:35;;;;;;;32.28;21.83;;;8.40;99.90;;;;;;6162576;23;20228;-83
2022/11/13 06:24:03;;;;;;;31.85;22.73;;;8.60;99.90;;;;;;6163718;23;20205;-82
2022/11/13 06:26:33;;;;;;;39.63;24.75;;;8.60;99.90;;;;;;6164482;23;20178;-81
2022/11/13 06:29:02;;;;;;;40.08;26.23;;;8.60;99.90;;;;;;6163941;23;20217;-83
2022/11/13 06:31:31;;;;;;;38.20;25.67;;;8.60;99.90;;;;;;6162822;23;20190;-81
2022/11/13 06:33:59;;;;;;;41.85;28.33;;;8.50;99.90;;;;;;6162639;23;20221;-84
2022/11/13 06:36:30;;;;;;;41.05;24.98;;;8.30;99.90;;;;;;6161616;23;20188;-83
2022/11/13 06:38:57;;;;;;;41.00;29.25;;;8.40;99.90;;;;;;6162260;23;20201;-83
2022/11/13 06:41:28;;;;;;;45.00;27.05;;;8.40;99.90;;;;;;6136418;23;20206;-83
2022/11/13 06:43:57;;;;;;;45.35;29.30;;;8.40;99.90;;;;;;6136950;23;20174;-83
2022/11/13 06:46:29;;;;;;;39.88;29.58;;;8.50;99.90;;;;;;6162311;23;20170;-83
2022/11/13 06:48:57;;;;;;;40.13;26.85;;;8.40;99.90;;;;;;6162316;23;20232;-82
2022/11/13 06:51:27;;;;;;;40.30;29.65;;;8.30;99.90;;;;;;6163102;23;20244;-83
2022/11/13 06:53:55;;;;;;;41.20;29.27;;;8.40;99.90;;;;;;6177565;23;20185;-85
2022/11/13 06:56:23;;;;;;;49.40;33.88;;;8.20;99.90;;;;;;6181218;23;20197;-84
2022/11/13 06:58:54;;;;;;;45.47;30.90;;;8.30;99.90;;;;;;6181433;23;20167;-86
2022/11/13 07:01:23;;;;;;;43.22;31.60;;;8.40;99.90;;;;;;6182251;23;20193;-85
2022/11/13 07:03:53;;;;;;;47.20;31.45;;;8.20;99.90;;;;;;6177339;23;20172;-82
2022/11/13 07:06:22;;;;;;;46.10;32.25;;;8.30;99.90;;;;;;6166086;23;20497;-82
2022/11/13 07:08:50;;;;;;;44.08;31.30;;;8.20;99.90;;;;;;6164581;23;20717;-83
2022/11/13 07:11:22;;;;;;;48.42;32.60;;;8.10;99.90;;;;;;6162261;23;20190;-82
2022/11/13 07:13:50;;;;;;;47.03;31.35;;;8.30;99.90;;;;;;6112829;23;20228;-82
2022/11/13 07:16:17;;;;;;;45.85;29.83;;;8.40;99.90;;;;;;6162946;23;20247;-84
2022/11/13 07:18:53;;;;;;;40.22;29.90;;;8.40;99.90;;;;;;6136406;23;20189;-81
2022/11/13 07:21:21;;;;;;;43.15;29.95;;;8.40;99.90;;;;;;6161831;23;20208;-82
2022/11/13 07:23:49;;;;;;;47.80;31.90;;;8.30;99.90;;;;;;6136517;23;20278;-83
2022/11/13 07:26:17;;;;;;;41.55;27.55;;;8.50;99.90;;;;;;6162300;23;20186;-83
2022/11/13 07:28:45;;;;;;;42.78;28.77;;;8.70;99.90;;;;;;6161610;23;20178;-82
2022/11/13 07:31:14;;;;;;;47.80;30.92;;;8.50;99.90;;;;;;6136061;23;20229;-82
2022/11/13 07:33:42;;;;;;;52.17;27.55;;;8.50;99.90;;;;;;6161165;23;20189;-83
2022/11/13 07:36:12;;;;;;;45.28;30.05;;;8.30;99.90;;;;;;6137166;23;20192;-82
2022/11/13 07:38:40;;;;;;;48.53;29.17;;;8.30;99.90;;;;;;6135864;23;20213;-82
2022/11/13 07:41:09;;;;;;;47.90;28.45;;;8.30;99.90;;;;;;6161959;23;20519;-82
2022/11/13 07:43:39;;;;;;;41.17;28.15;;;8.40;99.90;;;;;;6161562;23;20208;-81
2022/11/13 07:46:06;;;;;;;41.60;28.95;;;8.50;99.90;;;;;;6162084;23;20225;-84
2022/11/13 07:48:33;;;;;;;45.05;27.60;;;8.70;99.90;;;;;;6136541;23;20182;-83
2022/11/13 07:51:01;;;;;;;44.33;27.65;;;9.10;99.90;;;;;;6162311;23;20189;-85
2022/11/13 07:53:29;;;;;;;40.42;26.75;;;9.40;99.90;;;;;;6162552;23;20186;-86
2022/11/13 07:55:59;;;;;;;41.20;24.58;;;9.60;99.90;;;;;;6136139;23;20181;-84
2022/11/13 07:58:29;;;;;;;36.47;25.70;;;9.30;99.90;;;;;;6144272;23;20173;-83
2022/11/13 08:01:04;;;;;;;32.95;23.98;;;9.30;99.90;;;;;;6170124;23;20215;-81
2022/11/13 08:03:32;;;;;;;39.50;26.30;;;9.30;99.90;;;;;;6166665;23;20216;-83
2022/11/13 08:06:05;;;;;;;40.88;26.40;;;9.10;99.90;;;;;;6164594;23;20186;-83
2022/11/13 08:08:32;;;;;;;35.40;26.67;;;9.10;99.90;;;;;;6163457;23;20174;-84
2022/11/13 08:11:09;;;;;;;34.78;26.95;;;9.20;99.90;;;;;;6162158;23;20259;-85
2022/11/13 08:13:36;;;;;;;35.92;23.25;;;9.50;99.90;;;;;;6165408;23;20185;-83
2022/11/13 08:16:04;;;;;;;36.15;23.80;;;9.70;99.90;;;;;;6161799;23;20178;-82
2022/11/13 08:18:50;;;;;;;40.08;23.02;;;9.80;99.90;;;;;;6165400;23;20169;-85
2022/11/13 08:21:19;;;;;;;41.15;26.02;;;9.70;99.90;;;;;;6166457;23;20193;-80
2022/11/13 08:23:50;;;;;;;44.08;26.42;;;9.60;99.90;;;;;;6163747;23;20556;-83
2022/11/13 08:26:38;;;;;;;40.53;26.70;;;9.60;99.90;;;;;;6162869;23;20212;-84
2022/11/13 08:29:07;;;;;;;42.05;25.75;;;9.40;99.90;;;;;;6162211;23;20186;-83
2022/11/13 08:31:35;;;;;;;43.13;26.67;;;9.60;99.90;;;;;;6162239;23;20206;-83
2022/11/13 08:34:03;;;;;;;42.22;23.75;;;9.70;99.90;;;;;;6162165;23;20628;-81
2022/11/13 08:36:32;;;;;;;36.58;24.23;;;9.90;99.90;;;;;;6162212;23;20185;-81
2022/11/13 08:39:01;;;;;;;34.05;23.35;;;10.10;99.90;;;;;;6162753;23;20200;-81
2022/11/13 08:41:29;;;;;;;42.17;26.45;;;10.00;99.90;;;;;;6136806;23;20206;-83
2022/11/13 08:43:57;;;;;;;42.72;25.85;;;9.80;99.90;;;;;;6136011;23;20190;-83
2022/11/13 08:46:28;;;;;;;39.38;25.50;;;9.90;99.90;;;;;;6136434;23;20177;-82
2022/11/13 08:48:55;;;;;;;34.58;22.83;;;10.20;99.90;;;;;;6161466;23;20185;-86
2022/11/13 08:51:22;;;;;;;38.03;25.42;;;10.00;99.90;;;;;;6134932;23;20509;-84
2022/11/13 08:53:49;;;;;;;35.17;24.20;;;9.80;99.90;;;;;;6137034;23;20178;-83
2022/11/13 08:56:18;;;;;;;33.80;26.85;;;9.80;99.90;;;;;;6136807;23;20654;-83
2022/11/13 08:58:45;;;;;;;43.03;24.23;;;10.00;99.90;;;;;;6136689;23;20189;-82
2022/11/13 09:01:15;;;;;;;45.13;25.73;;;9.90;99.90;;;;;;6162586;23;20417;-82
2022/11/13 09:03:42;;;;;;;40.38;23.30;;;10.00;99.90;;;;;;6163348;23;20195;-83
2022/11/13 09:06:11;;;;;;;39.15;25.98;;;10.00;99.90;;;;;;6161716;23;20178;-81
2022/11/13 09:08:40;;;;;;;44.97;26.85;;;10.10;99.90;;;;;;6136661;23;20229;-84
2022/11/13 09:11:10;;;;;;;37.25;24.23;;;10.10;99.90;;;;;;6137028;23;20381;-84
2022/11/13 09:13:57;;;;;;;37.63;26.40;;;9.90;99.90;;;;;;6162664;23;20209;-81
2022/11/13 09:16:25;;;;;;;41.90;27.60;;;9.70;99.90;;;;;;6163110;23;20178;-83
2022/11/13 09:18:53;;;;;;;42.03;28.98;;;9.50;99.90;;;;;;6160621;23;20232;-83
2022/11/13 09:21:20;;;;;;;43.80;27.30;;;9.50;99.90;;;;;;6135854;23;20190;-83
2022/11/13 09:23:49;;;;;;;45.03;30.63;;;9.70;99.90;;;;;;6161632;23;20698;-82
2022/11/13 09:26:16;;;;;;;45.42;30.15;;;9.60;99.90;;;;;;6138304;23;20162;-82
2022/11/13 09:28:47;;;;;;;39.92;26.90;;;9.60;99.90;;;;;;6163168;23;20286;-85
2022/11/13 09:31:20;;;;;;;42.08;30.95;;;9.60;99.90;;;;;;6137614;23;20225;-85
2022/11/13 09:33:47;;;;;;;44.08;28.70;;;9.70;99.90;;;;;;6162805;23;20182;-85
2022/11/13 09:36:16;;;;;;;42.67;26.50;;;10.00;99.90;;;;;;6162279;23;20182;-83
2022/11/13 09:38:44;;;;;;;52.92;31.02;;;10.10;99.90;;;;;;6163269;23;20249;-79
2022/11/13 09:41:22;;;;;;;48.38;30.98;;;10.10;99.90;;;;;;6164247;23;20208;-84
2022/11/13 09:43:53;;;;;;;42.97;32.05;;;10.20;99.90;;;;;;6164831;23;20162;-87
2022/11/13 09:46:48;;;;;;;52.17;31.75;;;10.00;99.90;;;;;;6142322;23;20176;-83
2022/11/13 09:49:20;;;;;;;46.53;31.45;;;10.10;99.90;;;;;;6171080;23;20166;-82
2022/11/13 09:51:53;;;;;;;52.92;32.63;;;9.80;99.90;;;;;;6167594;23;20221;-84
2022/11/13 09:54:22;;;;;;;49.97;31.60;;;10.00;99.90;;;;;;6166066;23;20205;-81
2022/11/13 09:57:00;;;;;;;48.65;31.35;;;9.70;99.90;;;;;;6138725;23;20178;-83
2022/11/13 09:59:39;;;;;;;53.70;32.40;;;9.40;99.90;;;;;;6162629;23;20208;-82
2022/11/13 10:02:36;;;;;;;50.97;29.75;;;9.30;99.90;;;;;;6139059;23;20232;-83
2022/11/13 10:05:17;;;;;;;61.17;35.70;;;9.50;99.90;;;;;;6124738;23;20173;-84
2022/11/13 10:08:04;;;;;;;57.60;37.00;;;9.70;99.90;;;;;;6162048;23;20686;-83
2022/11/13 10:10:48;;;;;;;55.05;33.50;;;9.80;99.90;;;;;;6137831;23;20225;-82
2022/11/13 10:13:27;;;;;;;52.67;33.70;;;10.00;99.90;;;;;;6138873;23;20185;-85
2022/11/13 10:16:35;;;;;;;49.15;31.63;;;9.70;99.90;;;;;;6164107;23;20170;-81
2022/11/13 10:19:16;;;;;;;54.03;31.63;;;9.70;99.90;;;;;;6164351;23;20675;-85
2022/11/13 10:21:57;;;;;;;47.80;30.23;;;9.70;99.90;;;;;;6162183;23;20469;-84
2022/11/13 10:24:48;;;;;;;58.05;30.48;;;9.70;99.90;;;;;;6162777;23;20184;-82
2022/11/13 10:27:15;;;;;;;47.70;28.45;;;9.80;99.90;;;;;;6154596;23;20149;-83
2022/11/13 10:29:43;;;;;;;44.80;30.10;;;9.80;99.90;;;;;;6175856;23;20186;-81
2022/11/13 10:32:49;;;;;;;48.72;30.75;;;9.80;99.90;;;;;;6169095;23;20247;-81
2022/11/13 10:35:31;;;;;;;46.17;31.05;;;9.50;99.90;;;;;;6165782;23;20187;-81
2022/11/13 10:38:23;;;;;;;54.90;34.35;;;9.30;99.90;;;;;;6138955;23;20240;-81
2022/11/13 10:40:51;;;;;;;57.00;32.45;;;9.40;99.90;;;;;;6165511;23;20245;-83
2022/11/13 10:43:23;;;;;;;61.70;33.00;;;9.40;99.90;;;;;;6166850;23;20194;-80
2022/11/13 10:45:57;;;;;;;47.88;32.65;;;9.20;99.90;;;;;;6164006;23;20233;-83
2022/11/13 10:48:30;;;;;;;58.13;32.17;;;9.10;99.90;;;;;;6163479;23;20185;-82
2022/11/13 10:51:27;;;;;;;52.50;34.35;;;9.00;99.90;;;;;;6137936;23;20177;-80
2022/11/13 10:53:57;;;;;;;51.45;31.85;;;9.00;99.90;;;;;;6165902;23;20489;-83
2022/11/13 10:56:34;;;;;;;55.35;33.03;;;9.10;99.90;;;;;;6171677;23;20165;-86
2022/11/13 10:59:11;;;;;;;50.03;30.85;;;9.00;99.90;;;;;;6176310;23;20255;-86
2022/11/13 11:01:41;;;;;;;54.17;32.95;;;8.90;99.90;;;;;;6179044;23;20158;-85
2022/11/13 11:04:18;;;;;;;58.92;33.20;;;8.80;99.90;;;;;;6182684;23;20196;-82
2022/11/13 11:06:46;;;;;;;56.20;32.47;;;8.70;99.90;;;;;;6172161;23;20213;-85
2022/11/13 11:09:37;;;;;;;53.53;33.65;;;8.80;99.90;;;;;;6166487;23;20182;-84
2022/11/13 11:12:16;;;;;;;53.30;33.50;;;8.80;99.90;;;;;;6140000;23;20485;-86
2022/11/13 11:14:55;;;;;;;54.20;31.38;;;8.90;99.90;;;;;;6166229;23;20172;-79
2022/11/13 11:17:42;;;;;;;51.83;34.35;;;8.90;99.90;;;;;;6138936;23;20186;-83
2022/11/13 11:20:38;;;;;;;63.67;35.50;;;8.80;99.90;;;;;;6163930;23;20161;-80
2022/11/13 11:23:16;;;;;;;52.53;34.00;;;8.90;99.90;;;;;;6163918;23;20535;-82
2022/11/13 11:26:10;;;;;;;52.60;34.97;;;8.90;99.90;;;;;;6163990;23;20238;-82
2022/11/13 11:28:50;;;;;;;52.08;32.22;;;9.00;99.90;;;;;;6162728;23;20170;-83
2022/11/13 11:31:29;;;;;;;54.63;31.90;;;8.90;99.90;;;;;;6164460;23;20550;-84
2022/11/13 11:34:22;;;;;;;56.80;34.47;;;8.80;99.90;;;;;;6161097;23;20666;-82
2022/11/13 11:37:10;;;;;;;56.60;33.60;;;8.70;99.90;;;;;;6163282;23;20177;-83
2022/11/13 11:40:03;;;;;;;61.35;35.53;;;9.00;99.90;;;;;;6139248;23;20190;-83
2022/11/13 11:42:49;;;;;;;66.68;38.42;;;9.00;99.90;;;;;;6168150;23;20232;-82
2022/11/13 11:45:29;;;;;;;64.82;39.97;;;9.10;99.90;;;;;;6164020;23;20209;-84
2022/11/13 11:47:58;;;;;;;53.72;33.88;;;9.20;99.90;;;;;;6164868;23;20174;-83
2022/11/13 11:50:45;;;;;;;62.58;37.50;;;9.20;99.90;;;;;;6163712;23;20189;-83
2022/11/13 11:53:27;;;;;;;54.90;36.35;;;9.10;99.90;;;;;;6138263;23;20191;-83
2022/11/13 11:56:16;;;;;;;59.22;34.45;;;9.00;99.90;;;;;;6165928;23;20170;-85
2022/11/13 11:59:01;;;;;;;55.92;33.70;;;8.90;99.90;;;;;;6168232;23;20191;-81
2022/11/13 12:01:55;;;;;;;56.42;34.45;;;8.80;99.90;;;;;;6166706;23;20165;-82
2022/11/13 12:04:30;;;;;;;65.60;33.00;;;8.70;99.90;;;;;;6141758;23;20170;-82
2022/11/13 12:07:16;;;;;;;66.78;35.60;;;8.60;99.90;;;;;;6168500;23;20154;-84
2022/11/13 12:10:22;;;;;;;63.03;32.50;;;8.50;99.90;;;;;;6167523;23;20189;-82
2022/11/13 12:12:56;;;;;;;59.13;34.35;;;8.60;99.90;;;;;;6167591;23;20181;-81
2022/11/13 12:15:36;;;;;;;59.22;34.85;;;8.50;99.90;;;;;;6167650;23;20173;-85
2022/11/13 12:18:21;;;;;;;53.58;31.73;;;8.20;99.90;;;;;;6167374;23;20208;-80
2022/11/13 12:21:07;;;;;;;58.35;36.42;;;8.00;99.90;;;;;;6167047;23;20441;-80
2022/11/13 12:24:02;;;;;;;68.13;40.53;;;8.00;99.90;;;;;;6141490;23;20199;-81
2022/11/13 12:26:38;;;;;;;67.32;37.88;;;8.20;99.90;;;;;;6143353;23;20158;-80
2022/11/13 12:29:21;;;;;;;67.25;39.45;;;8.50;99.90;;;;;;6168301;23;20169;-81
2022/11/13 12:32:25;;;;;;;73.38;38.40;;;8.50;99.90;;;;;;6171642;23;20196;-81
2022/11/13 12:35:01;;;;;;;76.97;39.40;;;8.40;99.90;;;;;;6142537;23;20185;-82
2022/11/13 12:37:56;;;;;;;75.07;42.08;;;8.60;99.90;;;;;;6168262;23;20207;-83
2022/11/13 12:40:29;;;;;;;67.45;38.22;;;8.40;99.90;;;;;;6166205;23;20162;-82
2022/11/13 12:43:33;;;;;;;68.57;38.72;;;8.30;99.90;;;;;;6142856;23;20255;-81
2022/11/13 12:46:12;;;;;;;70.60;40.03;;;8.10;99.90;;;;;;6169633;23;20453;-83
2022/11/13 12:48:47;;;;;;;77.40;40.22;;;8.10;99.90;;;;;;6169094;23;20181;-82
2022/11/13 12:51:16;;;;;;;67.65;39.88;;;8.20;99.90;;;;;;6144297;23;20177;-81
2022/11/13 12:53:53;;;;;;;84.25;45.70;;;8.30;99.90;;;;;;6169929;23;20177;-81
2022/11/13 12:56:23;;;;;;;74.15;42.35;;;8.30;99.90;;;;;;6144331;23;20485;-79
2022/11/13 12:59:15;;;;;;;79.93;42.92;;;8.30;99.90;;;;;;6167598;23;20240;-81
2022/11/13 13:02:05;;;;;;;63.50;37.95;;;8.40;99.90;;;;;;6167763;23;20168;-83
2022/11/13 13:04:39;;;;;;;90.13;43.90;;;8.40;99.90;;;;;;6142516;23;20195;-81